createdAt,value
2022-12-23T00:00:43.152Z,8.54
2022-12-23T00:03:10.352Z,8.73
2022-12-23T00:05:41.823Z,8.18
2022-12-23T00:08:08.721Z,8.42
2022-12-23T00:10:39.031Z,8.38
2022-12-23T00:13:24.750Z,8.60
2022-12-23T00:15:51.726Z,8.75
2022-12-23T00:18:18.606Z,8.58
2022-12-23T00:20:45.632Z,8.46
2022-12-23T00:23:12.360Z,8.88
2022-12-23T00:25:44.831Z,8.47
2022-12-23T00:28:17.520Z,8.75
2022-12-23T00:30:50.000Z,8.95
2022-12-23T00:33:18.930Z,8.20
2022-12-23T00:35:46.929Z,8.65
2022-12-23T00:38:14.751Z,8.99
2022-12-23T00:41:01.038Z,8.92
2022-12-23T00:43:29.420Z,7.91
2022-12-23T00:45:56.290Z,8.47
2022-12-23T00:48:41.611Z,8.19
2022-12-23T00:51:08.446Z,7.93
2022-12-23T00:53:35.633Z,8.00
2022-12-23T00:56:02.680Z,8.99
2022-12-23T00:58:29.607Z,8.68
2022-12-23T01:01:14.916Z,8.88
2022-12-23T01:04:00.449Z,8.17
2022-12-23T01:06:27.297Z,8.78
2022-12-23T01:08:54.202Z,8.65
2022-12-23T01:11:21.358Z,8.91
2022-12-23T01:13:48.181Z,8.91
2022-12-23T01:16:18.083Z,8.72
2022-12-23T01:18:45.800Z,9.13
2022-12-23T01:21:12.961Z,8.10
2022-12-23T01:23:39.806Z,8.54
2022-12-23T01:26:08.827Z,9.15
2022-12-23T01:28:37.009Z,8.25
2022-12-23T01:31:06.206Z,8.75
2022-12-23T01:33:34.004Z,8.85
2022-12-23T01:36:07.070Z,8.54
2022-12-23T01:38:37.354Z,9.02
2022-12-23T01:41:04.334Z,8.76
2022-12-23T01:43:52.078Z,8.90
2022-12-23T01:46:19.110Z,8.77
2022-12-23T01:48:51.526Z,9.39
2022-12-23T01:51:26.268Z,8.92
2022-12-23T01:53:57.601Z,9.09
2022-12-23T01:56:38.304Z,8.79
2022-12-23T01:59:34.222Z,8.77
2022-12-23T02:02:40.590Z,9.26
2022-12-23T02:05:08.448Z,9.79
2022-12-23T02:07:55.227Z,9.43
2022-12-23T02:10:30.408Z,9.48
2022-12-23T02:13:19.673Z,9.51
2022-12-23T02:16:18.592Z,9.71
2022-12-23T02:18:53.807Z,9.36
2022-12-23T02:21:33.398Z,9.58
2022-12-23T02:24:18.240Z,10.24
2022-12-23T02:27:14.079Z,9.74
2022-12-23T02:30:18.228Z,10.30
2022-12-23T02:33:20.831Z,10.18
2022-12-23T02:36:00.050Z,9.95
2022-12-23T02:38:40.824Z,9.84
2022-12-23T02:41:40.793Z,10.18
2022-12-23T02:44:34.489Z,10.38
2022-12-23T02:47:07.601Z,10.52
2022-12-23T02:49:39.761Z,9.88
2022-12-23T02:52:13.911Z,10.56
2022-12-23T02:54:50.312Z,9.88
2022-12-23T02:57:23.892Z,9.98
2022-12-23T02:59:53.873Z,10.39
2022-12-23T03:02:21.516Z,10.51
2022-12-23T03:04:48.688Z,10.27
2022-12-23T03:07:25.325Z,10.33
2022-12-23T03:10:10.794Z,10.70
2022-12-23T03:13:10.514Z,10.09
2022-12-23T03:15:47.523Z,9.99
2022-12-23T03:18:25.874Z,10.22
2022-12-23T03:21:18.888Z,10.56
2022-12-23T03:24:06.997Z,10.19
2022-12-23T03:26:45.595Z,10.71
2022-12-23T03:29:21.200Z,10.76
2022-12-23T03:31:50.837Z,10.18
2022-12-23T03:34:23.396Z,10.51
2022-12-23T03:36:56.481Z,10.32
2022-12-23T03:39:30.207Z,10.59
2022-12-23T03:42:07.927Z,10.39
2022-12-23T03:44:57.165Z,10.18
2022-12-23T03:47:35.241Z,9.95
2022-12-23T03:50:20.143Z,10.40
2022-12-23T03:53:07.970Z,10.08
2022-12-23T03:55:42.442Z,10.11
2022-12-23T03:58:37.918Z,9.76
2022-12-23T04:01:18.467Z,9.99
2022-12-23T04:04:07.530Z,9.97
2022-12-23T04:06:42.672Z,9.90
2022-12-23T04:09:13.481Z,10.27
2022-12-23T04:11:43.790Z,10.06
2022-12-23T04:14:10.672Z,10.62
2022-12-23T04:16:38.549Z,9.77
2022-12-23T04:19:05.429Z,9.73
2022-12-23T04:21:32.384Z,9.99
2022-12-23T04:24:00.039Z,10.47
2022-12-23T04:26:27.078Z,10.31
2022-12-23T04:28:54.027Z,10.44
2022-12-23T04:31:22.099Z,9.80
2022-12-23T04:33:49.239Z,10.29
2022-12-23T04:36:16.152Z,10.33
2022-12-23T04:38:43.027Z,9.94
2022-12-23T04:41:09.895Z,10.54
2022-12-23T04:43:36.699Z,9.89
2022-12-23T04:46:03.594Z,9.84
2022-12-23T04:48:30.436Z,10.29
2022-12-23T04:50:57.364Z,10.60
2022-12-23T04:53:24.204Z,10.54
2022-12-23T04:55:52.073Z,10.51
2022-12-23T04:58:22.277Z,10.30
2022-12-23T05:00:49.346Z,10.18
2022-12-23T05:03:16.212Z,10.04
2022-12-23T05:05:44.557Z,10.32
2022-12-23T05:08:11.752Z,9.90
2022-12-23T05:10:38.665Z,10.38
2022-12-23T05:13:05.585Z,10.28
2022-12-23T05:15:33.247Z,10.51
2022-12-23T05:18:00.235Z,9.61
2022-12-23T05:20:27.039Z,9.79
2022-12-23T05:22:53.850Z,9.64
2022-12-23T05:25:21.050Z,9.90
2022-12-23T05:27:47.917Z,10.19
2022-12-23T05:30:15.227Z,10.13
2022-12-23T05:32:42.006Z,10.52
2022-12-23T05:35:09.388Z,9.64
2022-12-23T05:37:36.433Z,10.54
2022-12-23T05:40:03.631Z,9.74
2022-12-23T05:42:30.682Z,10.27
2022-12-23T05:44:57.602Z,10.14
2022-12-23T05:47:24.553Z,9.96
2022-12-23T05:49:51.486Z,9.82
2022-12-23T05:52:18.432Z,9.97
2022-12-23T05:54:47.519Z,10.39
2022-12-23T05:57:14.566Z,9.98
2022-12-23T05:59:41.474Z,9.95
2022-12-23T06:02:09.163Z,10.02
2022-12-23T06:04:38.647Z,10.30
2022-12-23T06:07:05.711Z,9.63
2022-12-23T06:09:32.959Z,10.54
2022-12-23T06:11:59.756Z,10.39
2022-12-23T06:14:29.023Z,10.52
2022-12-23T06:16:56.380Z,10.54
2022-12-23T06:19:23.785Z,10.00
2022-12-23T06:21:50.673Z,9.88
2022-12-23T06:24:17.592Z,10.46
2022-12-23T06:26:45.823Z,10.33
2022-12-23T06:29:12.716Z,9.87
2022-12-23T06:31:39.683Z,10.22
2022-12-23T06:34:06.568Z,10.47
2022-12-23T06:36:33.473Z,9.43
2022-12-23T06:39:00.484Z,9.41
2022-12-23T06:41:27.286Z,10.34
2022-12-23T06:43:54.684Z,10.75
2022-12-23T06:46:22.136Z,9.59
2022-12-23T06:48:49.055Z,10.16
2022-12-23T06:51:16.019Z,10.48
2022-12-23T06:53:42.811Z,9.80
2022-12-23T06:56:10.111Z,9.65
2022-12-23T06:58:36.993Z,10.50
2022-12-23T07:01:04.243Z,10.48
2022-12-23T07:03:31.249Z,10.65
2022-12-23T07:05:58.242Z,10.50
2022-12-23T07:08:25.238Z,9.81
2022-12-23T07:10:58.921Z,10.63
2022-12-23T07:13:26.525Z,9.84
2022-12-23T07:15:53.958Z,10.62
2022-12-23T07:18:23.046Z,10.39
2022-12-23T07:20:50.871Z,10.41
2022-12-23T07:23:18.273Z,10.26
2022-12-23T07:25:45.524Z,10.08
2022-12-23T07:28:12.433Z,10.17
2022-12-23T07:30:39.311Z,10.47
2022-12-23T07:33:06.557Z,10.34
2022-12-23T07:35:34.105Z,9.88
2022-12-23T07:38:01.369Z,10.43
2022-12-23T07:40:28.505Z,9.88
2022-12-23T07:42:57.902Z,9.88
2022-12-23T07:45:29.511Z,10.66
2022-12-23T07:47:58.592Z,9.99
2022-12-23T07:50:26.915Z,10.69
2022-12-23T07:52:54.635Z,10.66
2022-12-23T07:55:21.831Z,10.29
2022-12-23T07:57:52.802Z,10.73
2022-12-23T08:00:21.349Z,10.49
2022-12-23T08:02:48.671Z,10.60
2022-12-23T08:05:16.891Z,10.71
2022-12-23T08:07:45.551Z,10.59
2022-12-23T08:10:13.245Z,10.38
2022-12-23T08:12:40.124Z,10.81
2022-12-23T08:15:08.811Z,10.52
2022-12-23T08:17:35.607Z,10.21
2022-12-23T08:20:02.678Z,10.14
2022-12-23T08:22:32.077Z,10.29
2022-12-23T08:25:00.129Z,10.39
2022-12-23T08:27:27.090Z,9.76
2022-12-23T08:29:54.071Z,10.84
2022-12-23T08:32:21.185Z,10.52
2022-12-23T08:34:48.012Z,10.43
2022-12-23T08:37:15.404Z,10.09
2022-12-23T08:39:43.951Z,10.64
2022-12-23T08:42:10.923Z,10.53
2022-12-23T08:44:37.735Z,10.67
2022-12-23T08:47:04.753Z,10.43
2022-12-23T08:49:31.608Z,10.46
2022-12-23T08:51:58.741Z,10.78
2022-12-23T08:54:27.445Z,10.79
2022-12-23T08:56:54.869Z,10.57
2022-12-23T08:59:23.297Z,10.48
2022-12-23T09:01:50.510Z,10.58
2022-12-23T09:04:17.673Z,10.62
2022-12-23T09:06:45.754Z,10.88
2022-12-23T09:09:14.953Z,10.74
2022-12-23T09:11:42.030Z,10.64
2022-12-23T09:14:10.477Z,10.68
2022-12-23T09:16:37.870Z,10.49
2022-12-23T09:19:05.110Z,9.89
2022-12-23T09:21:32.082Z,10.97
2022-12-23T09:23:59.133Z,9.99
2022-12-23T09:26:29.012Z,10.60
2022-12-23T09:28:57.199Z,10.83
2022-12-23T09:31:26.755Z,10.19
2022-12-23T09:33:56.231Z,10.81
2022-12-23T09:36:23.196Z,10.22
2022-12-23T09:38:58.223Z,10.82
2022-12-23T09:41:27.754Z,10.71
2022-12-23T09:44:19.149Z,10.85
2022-12-23T09:46:51.889Z,10.81
2022-12-23T09:49:21.192Z,10.66
2022-12-23T09:51:50.385Z,9.78
2022-12-23T10:01:33.627Z,10.93
2022-12-23T10:04:03.602Z,11.00
2022-12-23T10:06:32.241Z,10.72
2022-12-23T10:09:02.751Z,10.04
2022-12-23T10:11:38.322Z,10.60
2022-12-23T10:14:20.979Z,10.51
2022-12-23T10:17:11.248Z,10.22
2022-12-23T10:19:45.861Z,10.91
2022-12-23T10:22:38.862Z,10.64
2022-12-23T10:25:29.111Z,10.32
2022-12-23T10:27:56.237Z,10.15
2022-12-23T10:30:53.988Z,10.41
2022-12-23T10:33:24.564Z,10.99
2022-12-23T10:36:07.430Z,11.00
2022-12-23T10:38:51.299Z,10.33
2022-12-23T10:41:44.135Z,9.88
2022-12-23T10:44:14.007Z,10.87
2022-12-23T10:47:00.369Z,10.97
2022-12-23T10:49:45.896Z,10.94
2022-12-23T10:52:29.292Z,10.58
2022-12-23T10:54:56.088Z,10.67
2022-12-23T10:57:25.093Z,10.66
2022-12-23T10:59:52.260Z,9.99
2022-12-23T11:02:38.075Z,10.87
2022-12-23T11:05:15.132Z,10.22
2022-12-23T11:07:45.699Z,10.74
2022-12-23T11:10:17.805Z,10.51
2022-12-23T11:12:47.972Z,9.96
2022-12-23T11:15:34.852Z,10.85
2022-12-23T11:18:12.049Z,10.15
2022-12-23T11:20:41.459Z,10.85
2022-12-23T11:23:37.893Z,10.79
2022-12-23T11:26:08.225Z,10.78
2022-12-23T11:28:38.928Z,10.93
2022-12-23T11:31:11.809Z,9.89
2022-12-23T11:33:45.783Z,10.12
2022-12-23T11:36:12.807Z,10.94
2022-12-23T11:39:11.816Z,11.04
2022-12-23T11:41:44.539Z,10.40
2022-12-23T11:44:17.373Z,11.02
2022-12-23T11:46:44.491Z,10.49
2022-12-23T11:49:44.612Z,11.08
2022-12-23T11:52:44.785Z,11.20
2022-12-23T11:55:41.199Z,10.32
2022-12-23T11:58:22.304Z,11.15
2022-12-23T12:01:09.214Z,9.84
2022-12-23T12:03:57.892Z,11.20
2022-12-23T12:06:43.265Z,11.23
2022-12-23T12:09:15.369Z,11.08
2022-12-23T12:12:17.016Z,10.92
2022-12-23T12:14:56.158Z,11.24
2022-12-23T12:17:43.910Z,11.21
2022-12-23T12:20:41.324Z,11.22
2022-12-23T12:24:17.879Z,11.22
2022-12-23T12:27:16.543Z,11.28
2022-12-23T12:30:01.049Z,11.20
2022-12-23T12:33:12.843Z,11.17
2022-12-23T12:35:49.485Z,9.99
2022-12-23T12:38:29.416Z,10.67
2022-12-23T12:41:29.727Z,11.22
2022-12-23T12:44:30.520Z,11.24
2022-12-23T12:47:36.718Z,11.24
2022-12-23T12:50:36.957Z,11.24
2022-12-23T12:53:25.178Z,11.27
2022-12-23T12:59:43.766Z,10.84
2022-12-23T13:02:22.746Z,11.37
2022-12-23T13:05:13.693Z,11.36
2022-12-23T13:07:48.132Z,11.40
2022-12-23T13:10:48.867Z,11.41
2022-12-23T13:13:36.965Z,11.38
2022-12-23T13:16:35.682Z,11.04
2022-12-23T13:19:19.268Z,11.50
2022-12-23T13:22:05.666Z,11.49
2022-12-23T13:24:42.625Z,11.50
2022-12-23T13:27:40.536Z,10.46
2022-12-23T13:30:18.130Z,11.53
2022-12-23T13:32:57.245Z,11.52
2022-12-23T13:35:36.160Z,11.55
2022-12-23T13:38:25.785Z,11.52
2022-12-23T13:41:42.491Z,11.55
2022-12-23T13:44:15.535Z,11.56
2022-12-23T13:47:21.822Z,11.58
2022-12-23T13:49:58.614Z,11.55
2022-12-23T13:53:11.773Z,11.32
2022-12-23T13:55:58.485Z,11.69
2022-12-23T13:58:32.917Z,10.81
2022-12-23T14:01:13.324Z,11.57
2022-12-23T14:03:44.864Z,11.65
2022-12-23T14:06:28.585Z,11.70
2022-12-23T14:09:07.089Z,11.03
2022-12-23T14:11:46.708Z,11.74
2022-12-23T14:14:26.215Z,11.39
2022-12-23T14:17:23.619Z,11.72
2022-12-23T14:20:27.945Z,11.70
2022-12-23T14:23:15.769Z,11.72
2022-12-23T14:25:59.735Z,11.01
2022-12-23T14:28:44.897Z,11.73
2022-12-23T14:34:36.417Z,10.33
2022-12-23T14:37:21.729Z,11.72
2022-12-23T14:39:50.195Z,10.74
2022-12-23T14:42:48.692Z,11.74
2022-12-23T14:45:38.449Z,11.76
2022-12-23T14:49:37.622Z,11.74
2022-12-23T14:52:50.985Z,11.84
2022-12-23T14:55:33.325Z,11.80
2022-12-23T14:58:28.121Z,11.80
2022-12-23T15:01:32.031Z,11.77
2022-12-23T15:04:01.728Z,11.81
2022-12-23T15:06:35.739Z,11.74
2022-12-23T15:09:03.649Z,11.53
2022-12-23T15:11:33.362Z,11.07
2022-12-23T15:14:10.614Z,11.85
2022-12-23T15:16:40.446Z,10.20
2022-12-23T15:19:27.779Z,11.80
2022-12-23T15:22:22.259Z,11.87
2022-12-23T15:24:50.794Z,11.74
2022-12-23T15:27:29.427Z,11.34
2022-12-23T15:29:57.214Z,11.57
2022-12-23T15:32:26.481Z,11.26
2022-12-23T15:35:03.048Z,10.42
2022-12-23T15:37:31.583Z,10.88
2022-12-23T15:40:09.388Z,11.01
2022-12-23T15:42:39.671Z,10.92
2022-12-23T15:45:33.163Z,11.77
2022-12-23T15:48:00.952Z,10.77
2022-12-23T15:50:28.719Z,11.34
2022-12-23T15:53:03.173Z,11.10
2022-12-23T15:55:32.979Z,10.97
2022-12-23T15:58:01.291Z,11.93
2022-12-23T16:00:37.250Z,10.73
2022-12-23T16:03:07.721Z,12.10
2022-12-23T16:05:39.323Z,11.99
2022-12-23T16:08:23.042Z,12.48
2022-12-23T16:11:02.727Z,12.56
2022-12-23T16:13:29.611Z,11.76
2022-12-23T16:16:21.188Z,12.53
2022-12-23T16:18:48.316Z,12.48
2022-12-23T16:21:15.695Z,12.29
2022-12-23T16:23:50.304Z,12.64
2022-12-23T16:26:17.611Z,11.82
2022-12-23T16:28:51.708Z,11.27
2022-12-23T16:31:20.897Z,12.83
2022-12-23T16:33:47.791Z,12.86
2022-12-23T16:36:32.056Z,12.66
2022-12-23T16:39:24.408Z,12.91
2022-12-23T16:41:51.489Z,12.76
2022-12-23T16:44:18.576Z,12.18
2022-12-23T16:46:49.342Z,11.90
2022-12-23T16:49:20.009Z,12.05
2022-12-23T16:51:47.371Z,12.60
2022-12-23T16:54:18.182Z,12.01
2022-12-23T16:56:47.059Z,12.67
2022-12-23T16:59:15.147Z,13.07
2022-12-23T17:01:50.217Z,12.89
2022-12-23T17:04:17.176Z,12.62
2022-12-23T17:06:46.757Z,12.54
2022-12-23T17:09:14.425Z,12.15
2022-12-23T17:11:49.997Z,12.79
2022-12-23T17:14:22.893Z,13.00
2022-12-23T17:16:50.509Z,12.54
2022-12-23T17:19:23.339Z,11.75
2022-12-23T17:22:00.108Z,13.01
2022-12-23T17:24:27.621Z,12.12
2022-12-23T17:26:57.023Z,12.89
2022-12-23T17:29:24.108Z,12.54
2022-12-23T17:31:51.805Z,12.94
2022-12-23T17:34:22.001Z,12.88
2022-12-23T17:36:50.678Z,12.13
2022-12-23T17:39:21.292Z,12.52
2022-12-23T17:41:48.848Z,12.35
2022-12-23T17:44:17.410Z,12.62
2022-12-23T17:46:46.012Z,13.16
2022-12-23T17:49:12.933Z,13.08
2022-12-23T17:51:41.827Z,12.55
2022-12-23T17:54:21.742Z,12.63
2022-12-23T17:56:48.939Z,12.62
2022-12-23T17:59:15.880Z,12.99
2022-12-23T18:01:42.835Z,12.93
2022-12-23T18:04:09.756Z,12.57
2022-12-23T18:06:36.702Z,12.17
2022-12-23T18:09:03.607Z,12.84
2022-12-23T18:11:44.223Z,12.62
2022-12-23T18:14:17.552Z,12.72
2022-12-23T18:16:45.574Z,13.09
2022-12-23T18:19:18.240Z,13.14
2022-12-23T18:21:45.781Z,12.35
2022-12-23T18:24:12.809Z,12.41
2022-12-23T18:26:39.846Z,12.45
2022-12-23T18:29:06.729Z,12.94
2022-12-23T18:31:33.741Z,12.92
2022-12-23T18:34:00.784Z,12.21
2022-12-23T18:36:34.078Z,12.63
2022-12-23T18:39:01.255Z,12.32
2022-12-23T18:41:28.340Z,12.27
2022-12-23T18:43:55.782Z,12.63
2022-12-23T18:46:22.979Z,12.37
2022-12-23T18:48:49.969Z,12.50
2022-12-23T18:51:20.082Z,12.70
2022-12-23T18:53:48.242Z,12.42
2022-12-23T18:56:17.078Z,12.76
2022-12-23T18:58:43.914Z,12.51
2022-12-23T19:01:16.209Z,12.72
2022-12-23T19:03:43.925Z,12.48
2022-12-23T19:06:13.847Z,12.83
2022-12-23T19:08:42.301Z,12.54
2022-12-23T19:11:17.988Z,12.79
2022-12-23T19:13:45.514Z,12.98
2022-12-23T19:16:15.581Z,12.90
2022-12-23T19:18:42.749Z,12.40
2022-12-23T19:21:09.766Z,12.83
2022-12-23T19:23:37.432Z,12.18
2022-12-23T19:26:06.373Z,12.03
2022-12-23T19:28:34.079Z,12.20
2022-12-23T19:31:00.908Z,11.63
2022-12-23T19:33:27.988Z,12.21
2022-12-23T19:35:54.884Z,12.84
2022-12-23T19:38:21.679Z,12.81
2022-12-23T19:40:57.957Z,11.98
2022-12-23T19:43:24.874Z,12.05
2022-12-23T19:45:59.448Z,12.58
2022-12-23T19:48:27.196Z,12.54
2022-12-23T19:51:02.958Z,12.20
2022-12-23T19:53:30.526Z,11.14
2022-12-23T19:56:02.172Z,12.06
2022-12-23T19:58:33.042Z,11.35
2022-12-23T20:01:11.889Z,11.35
2022-12-23T20:03:39.638Z,11.13
2022-12-23T20:06:08.672Z,12.38
2022-12-23T20:08:35.788Z,12.22
2022-12-23T20:11:08.840Z,12.22
2022-12-23T20:13:36.724Z,11.59
2022-12-23T20:16:04.962Z,12.14
2022-12-23T20:18:32.248Z,11.62
2022-12-23T20:21:01.274Z,12.20
2022-12-23T20:23:29.129Z,11.33
2022-12-23T20:25:56.594Z,11.62
2022-12-23T20:28:23.999Z,12.25
2022-12-23T20:31:07.609Z,11.51
2022-12-23T20:33:39.184Z,11.50
2022-12-23T20:36:07.791Z,12.26
2022-12-23T20:38:36.163Z,12.28
2022-12-23T20:41:03.371Z,11.89
2022-12-23T20:43:30.504Z,11.81
2022-12-23T20:45:57.580Z,11.26
2022-12-23T20:48:26.899Z,11.36
2022-12-23T20:51:12.077Z,10.88
2022-12-23T20:53:39.515Z,12.07
2022-12-23T20:56:08.799Z,11.39
2022-12-23T20:58:55.313Z,11.71
2022-12-23T21:01:23.179Z,11.76
2022-12-23T21:03:50.524Z,11.84
2022-12-23T21:06:17.677Z,11.41
2022-12-23T21:08:44.875Z,11.53
2022-12-23T21:11:11.790Z,11.39
2022-12-23T21:13:40.647Z,11.29
2022-12-23T21:16:09.962Z,11.30
2022-12-23T21:18:43.977Z,11.25
2022-12-23T21:21:11.896Z,11.49
2022-12-23T21:23:41.866Z,11.27
2022-12-23T21:26:11.860Z,11.79
2022-12-23T21:28:40.497Z,11.02
2022-12-23T21:31:08.727Z,11.80
2022-12-23T21:33:41.146Z,11.26
2022-12-23T21:36:10.363Z,11.56
2022-12-23T21:38:42.343Z,11.40
2022-12-23T21:41:15.974Z,11.69
2022-12-23T21:43:44.655Z,11.31
2022-12-23T21:46:14.679Z,10.95
2022-12-23T21:48:41.937Z,11.69
2022-12-23T21:51:15.775Z,11.65
2022-12-23T21:53:44.577Z,10.87
2022-12-23T21:56:15.231Z,11.00
2022-12-23T21:58:43.133Z,11.61
2022-12-23T22:01:22.105Z,11.70
2022-12-23T22:03:50.447Z,11.41
2022-12-23T22:06:20.597Z,11.56
2022-12-23T22:08:48.374Z,11.35
2022-12-23T22:11:22.210Z,11.45
2022-12-23T22:13:49.570Z,11.68
2022-12-23T22:16:20.606Z,10.68
2022-12-23T22:18:48.888Z,11.11
2022-12-23T22:21:19.321Z,11.55
2022-12-23T22:23:46.802Z,11.48
2022-12-23T22:26:24.601Z,10.74
2022-12-23T22:28:53.624Z,11.20
2022-12-23T22:31:36.165Z,11.17
2022-12-23T22:34:04.100Z,11.32
2022-12-23T22:36:32.666Z,11.10
2022-12-23T22:39:01.337Z,11.15
2022-12-23T22:41:29.934Z,11.11
2022-12-23T22:43:59.500Z,10.38
2022-12-23T22:46:27.122Z,10.98
2022-12-23T22:48:54.537Z,11.13
2022-12-23T22:51:24.884Z,11.17
2022-12-23T22:53:52.224Z,10.93
2022-12-23T22:56:21.249Z,11.17
2022-12-23T22:58:49.282Z,10.91
2022-12-23T23:01:28.667Z,10.21
2022-12-23T23:03:57.627Z,10.08
2022-12-23T23:06:26.693Z,10.29
2022-12-23T23:08:55.149Z,10.42
2022-12-23T23:11:22.932Z,10.85
2022-12-23T23:13:50.004Z,10.22
2022-12-23T23:16:17.334Z,10.66
2022-12-23T23:18:44.927Z,10.45
2022-12-23T23:21:14.009Z,10.42
2022-12-23T23:23:41.149Z,10.84
2022-12-23T23:26:10.602Z,11.17
2022-12-23T23:28:38.674Z,10.64
2022-12-23T23:31:39.928Z,10.67
2022-12-23T23:33:52.937Z,11.15
2022-12-23T23:36:20.791Z,11.14
2022-12-23T23:38:47.618Z,11.05
2022-12-23T23:41:18.928Z,10.88
2022-12-23T23:43:49.661Z,11.43
2022-12-23T23:46:16.554Z,10.83
2022-12-23T23:48:43.527Z,11.34
2022-12-23T23:51:11.446Z,11.28
2022-12-23T23:53:38.424Z,11.04
2022-12-23T23:56:07.330Z,10.71
2022-12-23T23:58:35.835Z,11.29
